createdAt,value
2018-12-29T00:00:16.001Z,66.0
2018-12-29T00:03:15.811Z,65.9
2018-12-29T00:06:15.882Z,66.0
2018-12-29T00:09:15.139Z,65.4
2018-12-29T00:12:16.193Z,65.8
2018-12-29T00:15:15.190Z,65.6
2018-12-29T00:18:15.247Z,65.5
2018-12-29T00:21:15.081Z,65.4
2018-12-29T00:24:15.841Z,65.5
2018-12-29T00:27:15.470Z,65.4
2018-12-29T00:30:15.282Z,65.4
2018-12-29T00:33:14.973Z,65.5
2018-12-29T00:36:16.015Z,65.7
2018-12-29T00:39:15.733Z,65.8
2018-12-29T00:42:15.408Z,66.0
2018-12-29T00:45:15.079Z,66.1
2018-12-29T00:48:15.752Z,65.9
2018-12-29T00:51:15.330Z,66.0
2018-12-29T00:54:15.041Z,66.0
2018-12-29T00:57:15.711Z,66.0
2018-12-29T01:00:15.295Z,66.2
2018-12-29T01:03:15.011Z,66.4
2018-12-29T01:06:15.978Z,66.3
2018-12-29T01:09:15.510Z,66.5
2018-12-29T01:12:15.184Z,66.3
2018-12-29T01:15:15.754Z,66.3
2018-12-29T01:18:15.493Z,66.2
2018-12-29T01:21:15.297Z,66.4
2018-12-29T01:24:15.120Z,66.6
2018-12-29T01:27:15.863Z,66.5
2018-12-29T01:30:15.411Z,66.6
2018-12-29T01:33:15.241Z,66.7
2018-12-29T01:36:15.959Z,66.6
2018-12-29T01:39:15.633Z,66.8
2018-12-29T01:42:15.342Z,66.7
2018-12-29T01:45:17.609Z,66.9
2018-12-29T01:48:15.565Z,66.3
2018-12-29T01:51:15.102Z,66.3
2018-12-29T01:54:15.846Z,66.3
2018-12-29T01:57:15.590Z,66.1
2018-12-29T02:00:15.237Z,65.9
2018-12-29T02:03:15.858Z,65.8
2018-12-29T02:06:15.535Z,65.9
2018-12-29T02:09:15.166Z,66.0
2018-12-29T02:12:15.728Z,66.1
2018-12-29T02:15:15.368Z,66.1
2018-12-29T02:18:15.151Z,66.2
2018-12-29T02:21:15.861Z,66.7
2018-12-29T02:24:15.572Z,66.8
2018-12-29T02:27:15.184Z,66.6
2018-12-29T02:30:15.937Z,66.6
2018-12-29T02:33:15.769Z,66.8
2018-12-29T02:36:15.453Z,66.8
2018-12-29T02:39:15.294Z,66.8
2018-12-29T02:42:15.102Z,67.2
2018-12-29T02:45:15.102Z,67.4
2018-12-29T02:48:15.872Z,67.1
2018-12-29T02:51:15.619Z,66.6
2018-12-29T02:54:15.359Z,67.2
2018-12-29T02:57:15.099Z,67.1
2018-12-29T03:00:15.733Z,67.0
2018-12-29T03:03:15.343Z,67.6
2018-12-29T03:06:15.067Z,67.6
2018-12-29T03:09:15.730Z,68.0
2018-12-29T03:12:15.398Z,67.7
2018-12-29T03:15:15.197Z,67.6
2018-12-29T03:18:15.114Z,67.1
2018-12-29T03:21:16.204Z,67.0
2018-12-29T03:24:14.899Z,66.6
2018-12-29T03:27:15.533Z,66.6
2018-12-29T03:30:15.247Z,66.4
2018-12-29T03:33:15.210Z,66.5
2018-12-29T03:36:16.037Z,66.5
2018-12-29T03:39:15.059Z,66.7
2018-12-29T03:42:15.791Z,66.4
2018-12-29T03:45:15.696Z,65.8
2018-12-29T03:48:15.340Z,65.8
2018-12-29T03:51:15.116Z,66.2
2018-12-29T03:54:15.832Z,65.8
2018-12-29T03:57:15.612Z,65.9
2018-12-29T04:00:15.650Z,65.9
2018-12-29T04:03:15.314Z,66.0
2018-12-29T04:06:15.055Z,66.3
2018-12-29T04:09:15.852Z,66.4
2018-12-29T04:12:15.591Z,66.8
2018-12-29T04:15:15.711Z,67.1
2018-12-29T04:18:15.599Z,67.1
2018-12-29T04:21:15.226Z,67.0
2018-12-29T04:24:14.984Z,66.9
2018-12-29T04:27:15.839Z,67.1
2018-12-29T04:30:15.606Z,66.8
2018-12-29T04:33:15.619Z,67.2
2018-12-29T04:36:15.845Z,67.2
2018-12-29T04:39:15.167Z,67.2
2018-12-29T04:42:15.737Z,67.0
2018-12-29T04:45:15.862Z,67.2
2018-12-29T04:48:15.068Z,67.7
2018-12-29T04:51:15.206Z,67.8
2018-12-29T04:54:15.785Z,68.2
2018-12-29T04:57:15.065Z,68.1
2018-12-29T05:00:15.571Z,68.1
2018-12-29T05:03:15.964Z,68.0
2018-12-29T05:06:15.095Z,68.3
2018-12-29T05:09:15.117Z,68.6
2018-12-29T05:12:15.257Z,68.2
2018-12-29T05:15:15.676Z,68.6
2018-12-29T05:18:16.136Z,67.9
2018-12-29T05:21:15.235Z,68.2
2018-12-29T05:24:15.418Z,68.0
2018-12-29T05:27:15.051Z,67.7
2018-12-29T05:30:15.203Z,68.4
2018-12-29T05:33:15.877Z,68.4
2018-12-29T05:36:15.914Z,68.7
2018-12-29T05:39:15.220Z,69.4
2018-12-29T05:42:15.372Z,69.3
2018-12-29T05:45:15.407Z,69.1
2018-12-29T05:48:14.979Z,69.4
2018-12-29T05:51:15.768Z,69.3
2018-12-29T05:54:15.709Z,69.2
2018-12-29T05:57:15.516Z,69.3
2018-12-29T06:00:15.438Z,69.1
2018-12-29T06:03:15.320Z,69.1
2018-12-29T06:06:15.133Z,68.6
2018-12-29T06:09:15.985Z,69.4
2018-12-29T06:12:15.766Z,69.6
2018-12-29T06:15:15.573Z,69.3
2018-12-29T06:18:15.462Z,69.1
2018-12-29T06:21:15.451Z,69.1
2018-12-29T06:24:15.697Z,69.1
2018-12-29T06:27:15.487Z,68.7
2018-12-29T06:30:15.287Z,69.0
2018-12-29T06:33:15.181Z,68.6
2018-12-29T06:36:15.079Z,69.0
2018-12-29T06:39:15.831Z,68.4
2018-12-29T06:42:15.675Z,68.2
2018-12-29T06:45:15.557Z,68.4
2018-12-29T06:48:15.478Z,68.3
2018-12-29T06:51:15.216Z,67.9
2018-12-29T06:54:15.115Z,68.4
2018-12-29T06:57:15.993Z,68.8
2018-12-29T07:00:15.809Z,68.7
2018-12-29T07:03:15.734Z,68.5
2018-12-29T07:06:15.571Z,68.8
2018-12-29T07:09:15.478Z,68.3
2018-12-29T07:12:15.287Z,68.3
2018-12-29T07:15:15.130Z,68.6
2018-12-29T07:18:15.237Z,68.1
2018-12-29T07:21:15.114Z,68.5
2018-12-29T07:24:15.960Z,68.4
2018-12-29T07:27:15.838Z,68.2
2018-12-29T07:30:15.735Z,68.2
2018-12-29T07:33:15.502Z,68.1
2018-12-29T07:36:15.307Z,68.1
2018-12-29T07:39:15.123Z,67.9
2018-12-29T07:42:15.042Z,67.5
2018-12-29T07:45:15.991Z,68.0
2018-12-29T07:48:15.803Z,68.4
2018-12-29T07:51:15.458Z,68.4
2018-12-29T07:54:15.325Z,68.8
2018-12-29T07:57:15.238Z,68.7
2018-12-29T08:00:15.175Z,68.8
2018-12-29T08:03:15.989Z,68.6
2018-12-29T08:06:15.910Z,68.8
2018-12-29T08:09:15.715Z,68.7
2018-12-29T08:12:15.453Z,68.7
2018-12-29T08:15:15.500Z,68.8
2018-12-29T08:18:15.544Z,68.5
2018-12-29T08:21:15.344Z,68.7
2018-12-29T08:24:15.113Z,68.9
2018-12-29T08:27:15.903Z,70.2
2018-12-29T08:30:15.781Z,70.2
2018-12-29T08:33:15.661Z,69.3
2018-12-29T08:36:15.578Z,69.1
2018-12-29T08:39:15.377Z,69.9
2018-12-29T08:42:15.253Z,69.3
2018-12-29T08:45:16.020Z,71.2
2018-12-29T08:48:15.667Z,71.1
2018-12-29T08:51:15.478Z,72.2
2018-12-29T08:54:15.236Z,72.4
2018-12-29T08:57:15.096Z,74.4
2018-12-29T09:00:15.015Z,73.7
2018-12-29T09:03:15.702Z,74.5
2018-12-29T09:06:15.542Z,74.3
2018-12-29T09:09:15.363Z,73.6
2018-12-29T09:12:15.263Z,73.2
2018-12-29T09:15:15.139Z,73.3
2018-12-29T09:18:15.099Z,73.0
2018-12-29T09:21:15.819Z,72.5
2018-12-29T09:24:15.731Z,71.5
2018-12-29T09:27:15.684Z,71.6
2018-12-29T09:30:15.693Z,72.4
2018-12-29T09:33:15.544Z,71.8
2018-12-29T09:36:15.326Z,72.0
2018-12-29T09:39:15.219Z,70.6
2018-12-29T09:42:15.007Z,71.2
2018-12-29T09:45:14.959Z,70.9
2018-12-29T09:48:15.739Z,70.7
2018-12-29T09:51:15.697Z,69.8
2018-12-29T09:54:15.543Z,69.5
2018-12-29T09:57:15.326Z,69.6
2018-12-29T10:00:15.248Z,69.5
2018-12-29T10:03:15.103Z,68.2
2018-12-29T10:06:15.970Z,67.9
2018-12-29T10:09:15.896Z,67.1
2018-12-29T10:12:15.630Z,66.2
2018-12-29T10:15:15.415Z,65.4
2018-12-29T10:18:15.316Z,66.6
2018-12-29T10:21:15.130Z,67.3
2018-12-29T10:24:15.891Z,67.6
2018-12-29T10:27:15.753Z,67.4
2018-12-29T10:30:15.725Z,67.5
2018-12-29T10:33:15.665Z,67.8
2018-12-29T10:36:15.415Z,67.8
2018-12-29T10:39:15.319Z,67.9
2018-12-29T10:42:15.170Z,67.9
2018-12-29T10:45:16.001Z,67.7
2018-12-29T10:48:15.923Z,67.8
2018-12-29T10:51:15.773Z,68.2
2018-12-29T10:54:15.761Z,67.9
2018-12-29T10:57:15.557Z,67.6
2018-12-29T11:00:15.460Z,68.7
2018-12-29T11:03:15.948Z,69.0
2018-12-29T11:06:15.784Z,68.9
2018-12-29T11:09:15.538Z,67.7
2018-12-29T11:12:15.509Z,67.1
2018-12-29T11:15:16.551Z,66.9
2018-12-29T11:18:15.717Z,66.5
2018-12-29T11:21:15.510Z,67.0
2018-12-29T11:24:15.408Z,67.3
2018-12-29T11:27:15.077Z,66.9
2018-12-29T11:30:15.208Z,66.6
2018-12-29T11:33:14.989Z,67.5
2018-12-29T11:36:15.169Z,67.9
2018-12-29T11:39:14.915Z,67.8
2018-12-29T11:42:15.113Z,67.1
2018-12-29T11:45:15.949Z,66.4
2018-12-29T11:48:15.718Z,66.2
2018-12-29T11:51:15.441Z,65.6
2018-12-29T11:54:15.257Z,65.6
2018-12-29T11:57:15.264Z,65.5
2018-12-29T12:00:15.080Z,65.6
2018-12-29T12:03:15.116Z,65.7
2018-12-29T12:06:15.295Z,66.2
2018-12-29T12:09:14.978Z,66.1
2018-12-29T12:12:15.880Z,67.0
2018-12-29T12:15:15.569Z,67.8
2018-12-29T12:18:20.581Z,67.6
2018-12-29T12:21:15.538Z,68.1
2018-12-29T12:24:15.426Z,67.7
2018-12-29T12:27:15.462Z,68.9
2018-12-29T12:30:15.465Z,68.5
2018-12-29T12:33:15.292Z,69.0
2018-12-29T12:36:15.446Z,69.3
2018-12-29T12:39:15.268Z,69.2
2018-12-29T12:42:15.164Z,69.8
2018-12-29T12:45:15.094Z,68.4
2018-12-29T12:48:15.872Z,68.9
2018-12-29T12:51:15.374Z,67.9
2018-12-29T12:54:15.128Z,69.6
2018-12-29T12:57:15.133Z,68.7
2018-12-29T13:00:15.907Z,68.7
2018-12-29T13:03:15.358Z,68.8
2018-12-29T13:06:15.321Z,68.2
2018-12-29T13:09:15.044Z,67.9
2018-12-29T13:12:15.013Z,68.2
2018-12-29T13:15:15.824Z,68.4
2018-12-29T13:18:15.848Z,68.1
2018-12-29T13:21:15.828Z,68.7
2018-12-29T13:24:15.642Z,68.6
2018-12-29T13:27:15.579Z,68.8
2018-12-29T13:30:15.599Z,68.5
2018-12-29T13:33:15.567Z,67.6
2018-12-29T13:36:15.346Z,68.5
2018-12-29T13:39:15.267Z,68.1
2018-12-29T13:42:15.144Z,68.2
2018-12-29T13:45:15.059Z,68.3
2018-12-29T13:48:20.519Z,67.3
2018-12-29T13:51:15.350Z,67.0
2018-12-29T13:54:15.113Z,67.2
2018-12-29T13:57:16.045Z,67.3
2018-12-29T14:00:15.775Z,68.2
2018-12-29T14:03:15.716Z,67.8
2018-12-29T14:06:15.543Z,68.1
2018-12-29T14:09:15.394Z,68.0
2018-12-29T14:12:15.214Z,68.4
2018-12-29T14:15:15.021Z,67.7
2018-12-29T14:18:15.989Z,68.7
2018-12-29T14:21:15.974Z,68.5
2018-12-29T14:24:15.810Z,68.7
2018-12-29T14:27:15.180Z,69.0
2018-12-29T14:30:15.117Z,68.9
2018-12-29T14:33:15.143Z,69.0
2018-12-29T14:36:14.928Z,68.5
2018-12-29T14:39:15.990Z,69.0
2018-12-29T14:42:15.713Z,69.6
2018-12-29T14:45:15.033Z,69.4
2018-12-29T14:48:14.911Z,69.5
2018-12-29T14:51:15.817Z,69.8
2018-12-29T14:54:15.432Z,69.3
2018-12-29T14:57:15.272Z,69.9
2018-12-29T15:00:15.148Z,69.1
2018-12-29T15:03:15.620Z,69.3
2018-12-29T15:06:15.691Z,69.4
2018-12-29T15:09:15.658Z,69.6
2018-12-29T15:12:15.887Z,69.1
2018-12-29T15:15:15.347Z,69.3
2018-12-29T15:18:15.310Z,69.6
2018-12-29T15:21:15.489Z,69.5
2018-12-29T15:24:15.360Z,69.6
2018-12-29T15:27:15.174Z,69.4
2018-12-29T15:30:15.114Z,69.5
2018-12-29T15:33:15.513Z,69.8
2018-12-29T15:36:16.209Z,70.0
2018-12-29T15:39:15.224Z,70.0
2018-12-29T15:42:15.198Z,70.2
2018-12-29T15:45:14.972Z,69.6
2018-12-29T15:48:16.021Z,69.3
2018-12-29T15:51:15.805Z,69.1
2018-12-29T15:54:15.920Z,69.8
2018-12-29T15:57:15.917Z,69.4
2018-12-29T16:00:15.197Z,69.9
2018-12-29T16:03:15.358Z,70.0
2018-12-29T16:06:15.667Z,70.2
2018-12-29T16:09:15.481Z,70.4
2018-12-29T16:12:14.987Z,70.6
2018-12-29T16:15:15.881Z,70.6
2018-12-29T16:18:15.682Z,70.7
2018-12-29T16:21:15.555Z,70.8
2018-12-29T16:24:15.573Z,71.0
2018-12-29T16:27:15.254Z,70.7
2018-12-29T16:30:15.373Z,71.0
2018-12-29T16:33:15.436Z,71.1
2018-12-29T16:36:15.205Z,70.8
2018-12-29T16:39:15.251Z,71.1
2018-12-29T16:42:15.322Z,71.0
2018-12-29T16:45:15.620Z,71.1
2018-12-29T16:48:15.473Z,71.1
2018-12-29T16:51:15.828Z,71.1
2018-12-29T16:54:15.049Z,71.1
2018-12-29T16:57:16.052Z,71.0
2018-12-29T17:00:15.792Z,70.6
2018-12-29T17:03:15.658Z,70.4
2018-12-29T17:06:15.587Z,70.3
2018-12-29T17:09:15.504Z,70.2
2018-12-29T17:12:15.382Z,69.8
2018-12-29T17:15:15.229Z,70.1
2018-12-29T17:18:15.744Z,70.2
2018-12-29T17:21:15.556Z,70.1
2018-12-29T17:24:15.428Z,70.2
2018-12-29T17:27:15.533Z,70.1
2018-12-29T17:30:15.890Z,70.2
2018-12-29T17:33:15.405Z,70.2
2018-12-29T17:36:15.085Z,70.2
2018-12-29T17:39:15.072Z,70.1
2018-12-29T17:42:15.045Z,70.4
2018-12-29T17:45:15.061Z,70.3
2018-12-29T17:48:15.433Z,70.2
2018-12-29T17:51:15.349Z,70.0
2018-12-29T17:54:15.308Z,70.2
2018-12-29T17:57:15.167Z,69.9
2018-12-29T18:00:14.935Z,71.4
2018-12-29T18:03:15.783Z,74.5
2018-12-29T18:06:15.102Z,75.4
2018-12-29T18:09:15.321Z,76.5
2018-12-29T18:12:15.823Z,76.0
2018-12-29T18:15:16.108Z,76.1
2018-12-29T18:18:15.365Z,75.9
2018-12-29T18:21:15.601Z,76.6
2018-12-29T18:24:15.390Z,75.9
2018-12-29T18:27:15.412Z,76.0
2018-12-29T18:30:15.312Z,75.3
2018-12-29T18:33:15.332Z,76.2
2018-12-29T18:36:15.731Z,76.3
2018-12-29T18:39:15.889Z,76.0
2018-12-29T18:42:15.944Z,76.2
2018-12-29T18:45:15.869Z,75.0
2018-12-29T18:48:15.707Z,76.1
2018-12-29T18:51:15.597Z,75.3
2018-12-29T18:54:15.869Z,75.2
2018-12-29T18:57:15.589Z,74.9
2018-12-29T19:00:15.657Z,75.4
2018-12-29T19:03:15.454Z,76.1
2018-12-29T19:06:15.908Z,75.9
2018-12-29T19:09:15.825Z,75.6
2018-12-29T19:12:15.693Z,75.5
2018-12-29T19:15:15.940Z,74.9
2018-12-29T19:18:15.880Z,75.1
2018-12-29T19:21:15.957Z,75.3
2018-12-29T19:24:15.850Z,74.8
2018-12-29T19:27:15.749Z,75.4
2018-12-29T19:30:15.949Z,75.5
2018-12-29T19:33:15.717Z,75.5
2018-12-29T19:36:15.519Z,75.5
2018-12-29T19:39:15.129Z,75.2
2018-12-29T19:42:15.078Z,74.5
2018-12-29T19:45:15.926Z,74.0
2018-12-29T19:48:15.459Z,74.5
2018-12-29T19:51:15.654Z,75.4
2018-12-29T19:54:15.741Z,74.8
2018-12-29T19:57:15.291Z,74.6
2018-12-29T20:00:15.470Z,74.6
2018-12-29T20:03:15.511Z,74.7
2018-12-29T20:06:15.668Z,74.6
2018-12-29T20:09:15.560Z,74.5
2018-12-29T20:12:15.889Z,74.6
2018-12-29T20:15:15.615Z,74.7
2018-12-29T20:18:15.668Z,74.6
2018-12-29T20:21:15.245Z,74.6
2018-12-29T20:24:15.061Z,74.6
2018-12-29T20:27:14.932Z,74.9
2018-12-29T20:30:15.198Z,74.8
2018-12-29T20:33:15.041Z,74.5
2018-12-29T20:36:15.834Z,74.6
2018-12-29T20:39:15.919Z,74.6
2018-12-29T20:42:15.885Z,74.5
2018-12-29T20:45:15.050Z,74.3
2018-12-29T20:48:15.882Z,74.4
2018-12-29T20:51:15.727Z,74.5
2018-12-29T20:54:15.688Z,74.4
2018-12-29T20:57:15.379Z,74.5
2018-12-29T21:00:15.348Z,74.6
2018-12-29T21:03:20.303Z,74.7
2018-12-29T21:06:15.191Z,74.7
2018-12-29T21:09:15.099Z,74.9
2018-12-29T21:12:15.629Z,74.6
2018-12-29T21:15:15.449Z,75.0
2018-12-29T21:18:15.692Z,75.1
2018-12-29T21:21:15.770Z,74.8
2018-12-29T21:24:15.765Z,74.7
2018-12-29T21:27:15.787Z,74.7
2018-12-29T21:30:15.800Z,74.4
2018-12-29T21:33:15.911Z,74.0
2018-12-29T21:36:15.969Z,74.3
2018-12-29T21:39:15.909Z,74.3
2018-12-29T21:42:15.802Z,74.0
2018-12-29T21:45:15.103Z,73.9
2018-12-29T21:48:15.953Z,74.0
2018-12-29T21:51:15.869Z,73.8
2018-12-29T21:54:15.774Z,73.9
2018-12-29T21:57:15.621Z,73.7
2018-12-29T22:00:15.713Z,73.8
2018-12-29T22:03:15.428Z,73.8
2018-12-29T22:06:15.175Z,73.7
2018-12-29T22:09:14.921Z,73.9
2018-12-29T22:12:20.861Z,73.7
2018-12-29T22:15:15.697Z,73.5
2018-12-29T22:18:15.665Z,73.4
2018-12-29T22:21:15.365Z,73.5
2018-12-29T22:24:16.058Z,73.5
2018-12-29T22:27:15.655Z,73.7
2018-12-29T22:30:15.631Z,73.5
2018-12-29T22:33:15.385Z,73.4
2018-12-29T22:36:15.887Z,73.4
2018-12-29T22:39:15.511Z,73.4
2018-12-29T22:42:15.709Z,73.3
2018-12-29T22:45:15.460Z,73.3
2018-12-29T22:48:15.167Z,73.3
2018-12-29T22:51:14.978Z,73.4
2018-12-29T22:54:15.892Z,73.4
2018-12-29T22:57:15.601Z,73.3
2018-12-29T23:00:15.638Z,73.4
2018-12-29T23:03:16.169Z,73.4
2018-12-29T23:06:15.062Z,73.6
2018-12-29T23:09:15.800Z,73.6
2018-12-29T23:12:15.718Z,74.2
2018-12-29T23:15:15.067Z,74.1
2018-12-29T23:18:15.078Z,73.6
2018-12-29T23:21:16.204Z,73.1
2018-12-29T23:24:15.259Z,73.1
2018-12-29T23:27:15.178Z,72.9
2018-12-29T23:30:15.127Z,72.6
2018-12-29T23:33:15.179Z,72.4
2018-12-29T23:36:14.973Z,72.3
2018-12-29T23:39:16.137Z,72.4
2018-12-29T23:42:15.593Z,72.1
2018-12-29T23:45:15.822Z,72.2
2018-12-29T23:48:15.469Z,72.0
2018-12-29T23:51:15.223Z,72.1
2018-12-29T23:54:15.083Z,72.0
2018-12-29T23:57:15.815Z,72.0
